Loving, Texas
Current Conditions -  °F | °C
As of 6:50 PM on Monday 26 Jan 2015 (Local Time) from KRPH Reporting Station
Clear Clear  
Wind Chill: 63°   Ceiling: Unl
Heat Index: 63°   Visibility: 10mi
Dew Point: 36°   Wind: 6mph
Humidity: 37%   Direction: 210°SSW
Pressure: 30.08"   Gusts: NA
Location:  33.26°N, 98.51°W
Report Text: KRPH 270050Z AUTO 21005KT 10SM CLR 17/02 A3008 RMK AO2 T01730023
Loading
Personal Weather Stations






























Interactive Weather Map New forecast layout! Learn more

10-Day Weather Forecast

Advertisements
Track Severe Weather on mobile